createdAt,value
2022-10-01T00:00:51.111Z,11.25
2022-10-01T00:01:50.884Z,11.25
2022-10-01T00:02:50.933Z,11.24
2022-10-01T00:03:51.073Z,11.22
2022-10-01T00:04:50.832Z,11.24
2022-10-01T00:05:50.804Z,11.22
2022-10-01T00:06:50.814Z,11.22
2022-10-01T00:07:50.779Z,11.22
2022-10-01T00:08:50.787Z,11.22
2022-10-01T00:09:50.743Z,11.21
2022-10-01T00:10:50.752Z,11.21
2022-10-01T00:11:50.742Z,11.22
2022-10-01T00:12:50.717Z,11.21
2022-10-01T00:13:50.718Z,11.21
2022-10-01T00:14:50.703Z,11.21
2022-10-01T00:15:50.673Z,11.19
2022-10-01T00:16:50.980Z,11.21
2022-10-01T00:17:50.923Z,11.22
2022-10-01T00:18:50.661Z,11.22
2022-10-01T00:19:50.643Z,11.24
2022-10-01T00:20:50.635Z,11.25
2022-10-01T00:21:50.634Z,11.25
2022-10-01T00:22:50.603Z,11.25
2022-10-01T00:23:50.615Z,11.27
2022-10-01T00:24:50.591Z,11.27
2022-10-01T00:25:50.564Z,11.28
2022-10-01T00:26:50.579Z,11.29
2022-10-01T00:27:50.612Z,11.29
2022-10-01T00:28:50.535Z,11.32
2022-10-01T00:29:50.519Z,11.33
2022-10-01T00:30:50.797Z,11.35
2022-10-01T00:31:50.610Z,11.39
2022-10-01T00:32:50.484Z,11.40
2022-10-01T00:33:50.509Z,11.43
2022-10-01T00:34:50.478Z,11.43
2022-10-01T00:35:50.456Z,11.44
2022-10-01T00:36:50.449Z,11.44
2022-10-01T00:37:50.724Z,11.44
2022-10-01T00:38:50.441Z,11.44
2022-10-01T00:39:50.415Z,11.44
2022-10-01T00:40:50.428Z,11.43
2022-10-01T00:41:50.414Z,11.43
2022-10-01T00:42:50.366Z,11.44
2022-10-01T00:43:50.368Z,11.44
2022-10-01T00:44:50.390Z,11.46
2022-10-01T00:45:50.389Z,11.44
2022-10-01T00:46:50.336Z,11.44
2022-10-01T00:47:50.337Z,11.46
2022-10-01T00:48:50.298Z,11.46
2022-10-01T00:49:50.296Z,11.44
2022-10-01T00:50:50.284Z,11.47
2022-10-01T00:51:50.286Z,11.49
2022-10-01T00:52:50.260Z,11.51
2022-10-01T00:53:50.258Z,11.51
2022-10-01T00:54:50.252Z,11.54
2022-10-01T00:55:50.249Z,11.52
2022-10-01T00:56:50.220Z,11.55
2022-10-01T00:57:50.529Z,11.54
2022-10-01T00:58:50.223Z,11.54
2022-10-01T00:59:50.186Z,11.54
2022-10-01T01:00:50.169Z,11.52
2022-10-01T01:01:50.584Z,11.54
2022-10-01T01:02:50.231Z,11.55
2022-10-01T01:03:50.132Z,11.55
2022-10-01T01:04:50.159Z,11.60
2022-10-01T01:05:50.110Z,11.58
2022-10-01T01:06:50.119Z,11.58
2022-10-01T01:07:50.091Z,11.57
2022-10-01T01:08:50.370Z,11.58
2022-10-01T01:09:50.069Z,11.55
2022-10-01T01:10:50.055Z,11.54
2022-10-01T01:11:50.331Z,11.54
2022-10-01T01:12:50.050Z,11.52
2022-10-01T01:13:50.023Z,11.49
2022-10-01T01:14:50.029Z,11.47
2022-10-01T01:15:50.311Z,11.46
2022-10-01T01:16:50.013Z,11.43
2022-10-01T01:17:49.983Z,11.40
2022-10-01T01:18:50.284Z,11.36
2022-10-01T01:19:49.965Z,11.33
2022-10-01T01:20:49.987Z,11.27
2022-10-01T01:21:51.066Z,11.22
2022-10-01T01:22:49.940Z,11.17
2022-10-01T01:23:49.905Z,11.11
2022-10-01T01:24:49.910Z,11.10
2022-10-01T01:25:49.915Z,11.07
2022-10-01T01:26:49.903Z,11.06
2022-10-01T01:27:49.914Z,11.04
2022-10-01T01:28:49.887Z,11.03
2022-10-01T01:29:49.853Z,11.03
2022-10-01T01:30:49.895Z,10.97
2022-10-01T01:31:49.823Z,10.96
2022-10-01T01:32:49.826Z,10.94
2022-10-01T01:33:49.812Z,10.92
2022-10-01T01:34:49.784Z,10.92
2022-10-01T01:35:49.785Z,10.91
2022-10-01T01:36:49.787Z,10.85
2022-10-01T01:37:49.754Z,10.82
2022-10-01T01:38:49.736Z,10.82
2022-10-01T01:39:50.044Z,10.84
2022-10-01T01:40:49.727Z,10.86
2022-10-01T01:41:49.714Z,10.85
2022-10-01T01:42:50.008Z,10.78
2022-10-01T01:43:49.988Z,10.79
2022-10-01T01:44:49.714Z,10.84
2022-10-01T01:45:49.715Z,10.84
2022-10-01T01:46:49.687Z,10.85
2022-10-01T01:47:49.652Z,10.86
2022-10-01T01:48:50.537Z,10.88
2022-10-01T01:49:49.936Z,10.85
2022-10-01T01:50:49.614Z,10.81
2022-10-01T01:51:49.598Z,10.79
2022-10-01T01:52:49.634Z,10.78
2022-10-01T01:53:49.856Z,10.79
2022-10-01T01:54:49.556Z,10.82
2022-10-01T01:55:49.541Z,10.76
2022-10-01T01:56:49.559Z,10.71
2022-10-01T01:57:49.528Z,10.68
2022-10-01T01:58:49.527Z,10.67
2022-10-01T01:59:49.571Z,10.67
2022-10-01T02:00:49.507Z,10.66
2022-10-01T02:01:49.637Z,10.67
2022-10-01T02:02:49.517Z,10.67
2022-10-01T02:03:49.482Z,10.67
2022-10-01T02:04:49.448Z,10.66
2022-10-01T02:05:49.438Z,10.66
2022-10-01T02:06:49.449Z,10.60
2022-10-01T02:07:49.438Z,10.56
2022-10-01T02:08:49.401Z,10.56
2022-10-01T02:09:49.397Z,10.56
2022-10-01T02:10:49.650Z,10.53
2022-10-01T02:11:49.377Z,10.51
2022-10-01T02:12:49.345Z,10.47
2022-10-01T02:13:49.355Z,10.47
2022-10-01T02:14:49.339Z,10.45
2022-10-01T02:15:49.347Z,10.47
2022-10-01T02:16:49.355Z,10.48
2022-10-01T02:17:49.308Z,10.48
2022-10-01T02:18:49.287Z,10.51
2022-10-01T02:19:50.107Z,10.47
2022-10-01T02:20:49.287Z,10.42
2022-10-01T02:21:49.849Z,10.42
2022-10-01T02:22:49.239Z,10.41
2022-10-01T02:23:49.249Z,10.40
2022-10-01T02:24:49.485Z,10.38
2022-10-01T02:25:49.206Z,10.34
2022-10-01T02:26:49.197Z,10.34
2022-10-01T02:27:49.477Z,10.33
2022-10-01T02:28:49.170Z,10.34
2022-10-01T02:29:49.150Z,10.33
2022-10-01T02:30:49.433Z,10.30
2022-10-01T02:31:49.160Z,10.32
2022-10-01T02:32:49.124Z,10.29
2022-10-01T02:33:49.108Z,10.32
2022-10-01T02:34:49.406Z,10.33
2022-10-01T02:35:49.073Z,10.30
2022-10-01T02:36:49.099Z,10.34
2022-10-01T02:37:49.071Z,10.32
2022-10-01T02:38:49.341Z,10.32
2022-10-01T02:39:49.033Z,10.32
2022-10-01T02:40:49.021Z,10.29
2022-10-01T02:41:49.031Z,10.32
2022-10-01T02:42:48.998Z,10.32
2022-10-01T02:43:48.991Z,10.34
2022-10-01T02:44:49.001Z,10.36
2022-10-01T02:45:49.012Z,10.36
2022-10-01T02:46:48.963Z,10.40
2022-10-01T02:47:48.952Z,10.38
2022-10-01T02:48:48.953Z,10.38
2022-10-01T02:49:48.916Z,10.40
2022-10-01T02:50:48.910Z,10.36
2022-10-01T02:51:48.923Z,10.40
2022-10-01T02:52:48.913Z,10.42
2022-10-01T02:53:48.875Z,10.44
2022-10-01T02:54:48.893Z,10.40
2022-10-01T02:55:48.866Z,10.41
2022-10-01T02:56:49.868Z,10.41
2022-10-01T02:57:48.828Z,10.45
2022-10-01T02:58:48.836Z,10.42
2022-10-01T02:59:49.175Z,10.44
2022-10-01T03:00:48.784Z,10.41
2022-10-01T03:01:48.889Z,10.44
2022-10-01T03:02:48.810Z,10.42
2022-10-01T03:03:48.756Z,10.47
2022-10-01T03:04:48.742Z,10.47
2022-10-01T03:05:48.774Z,10.48
2022-10-01T03:06:48.823Z,10.52
2022-10-01T03:07:48.715Z,10.53
2022-10-01T03:08:48.725Z,10.55
2022-10-01T03:09:48.714Z,10.59
2022-10-01T03:10:48.674Z,10.59
2022-10-01T03:11:48.955Z,10.61
2022-10-01T03:12:48.656Z,10.60
2022-10-01T03:13:48.637Z,10.59
2022-10-01T03:14:48.623Z,10.60
2022-10-01T03:15:48.988Z,10.60
2022-10-01T03:16:48.624Z,10.64
2022-10-01T03:17:48.600Z,10.66
2022-10-01T03:18:48.607Z,10.68
2022-10-01T03:19:48.576Z,10.70
2022-10-01T03:20:48.549Z,10.71
2022-10-01T03:21:48.556Z,10.76
2022-10-01T03:22:48.802Z,10.76
2022-10-01T03:23:48.526Z,10.76
2022-10-01T03:24:48.505Z,10.76
2022-10-01T03:25:48.786Z,10.78
2022-10-01T03:26:48.769Z,10.78
2022-10-01T03:27:48.507Z,10.78
2022-10-01T03:28:48.450Z,10.84
2022-10-01T03:29:48.460Z,10.79
2022-10-01T03:30:48.439Z,10.79
2022-10-01T03:31:48.540Z,10.79
2022-10-01T03:32:48.717Z,10.79
2022-10-01T03:33:49.521Z,10.79
2022-10-01T03:34:48.388Z,10.84
2022-10-01T03:35:48.410Z,10.84
2022-10-01T03:36:48.689Z,10.86
2022-10-01T03:37:48.349Z,10.85
2022-10-01T03:38:48.345Z,10.86
2022-10-01T03:39:48.621Z,10.85
2022-10-01T03:40:48.343Z,10.86
2022-10-01T03:41:48.308Z,10.86
2022-10-01T03:42:48.318Z,10.86
2022-10-01T03:43:48.290Z,10.89
2022-10-01T03:44:48.278Z,10.89
2022-10-01T03:45:48.315Z,10.88
2022-10-01T03:46:48.280Z,10.91
2022-10-01T03:47:48.230Z,10.92
2022-10-01T03:48:48.229Z,10.91
2022-10-01T03:49:48.216Z,10.89
2022-10-01T03:50:48.222Z,10.91
2022-10-01T03:51:48.213Z,10.89
2022-10-01T03:52:48.205Z,10.89
2022-10-01T03:53:48.189Z,10.92
2022-10-01T03:54:48.159Z,10.94
2022-10-01T03:55:48.140Z,10.97
2022-10-01T03:56:48.173Z,10.97
2022-10-01T03:57:48.124Z,10.96
2022-10-01T03:58:48.104Z,10.96
2022-10-01T03:59:48.092Z,10.92
2022-10-01T04:00:48.114Z,10.92
2022-10-01T04:01:48.191Z,10.92
2022-10-01T04:02:48.086Z,10.91
2022-10-01T04:03:48.074Z,10.91
2022-10-01T04:04:48.039Z,10.88
2022-10-01T04:05:48.031Z,10.89
2022-10-01T04:06:48.062Z,10.88
2022-10-01T04:07:48.002Z,10.86
2022-10-01T04:08:47.993Z,10.85
2022-10-01T04:09:47.980Z,10.85
2022-10-01T04:10:47.992Z,10.85
2022-10-01T04:11:48.247Z,10.88
2022-10-01T04:12:47.941Z,10.89
2022-10-01T04:13:48.897Z,10.89
2022-10-01T04:14:47.931Z,10.88
2022-10-01T04:15:47.964Z,10.86
2022-10-01T04:16:47.907Z,10.86
2022-10-01T04:17:47.911Z,10.88
2022-10-01T04:18:47.886Z,10.86
2022-10-01T04:19:47.863Z,10.85
2022-10-01T04:20:47.873Z,10.86
2022-10-01T04:21:47.874Z,10.88
2022-10-01T04:22:47.827Z,10.89
2022-10-01T04:23:47.813Z,10.92
2022-10-01T04:24:47.812Z,10.91
2022-10-01T04:25:47.813Z,10.89
2022-10-01T04:26:47.798Z,10.89
2022-10-01T04:27:47.832Z,10.92
2022-10-01T04:28:48.058Z,10.97
2022-10-01T04:29:47.744Z,10.99
2022-10-01T04:30:47.764Z,10.99
2022-10-01T04:31:47.811Z,11.00
2022-10-01T04:32:47.715Z,11.04
2022-10-01T04:33:47.695Z,11.09
2022-10-01T04:34:47.714Z,11.10
2022-10-01T04:35:47.703Z,11.11
2022-10-01T04:36:47.684Z,11.09
2022-10-01T04:37:47.675Z,11.11
2022-10-01T04:38:47.654Z,11.11
2022-10-01T04:39:47.629Z,11.14
2022-10-01T04:40:47.616Z,11.17
2022-10-01T04:41:47.901Z,11.21
2022-10-01T04:42:47.590Z,11.21
2022-10-01T04:43:47.591Z,11.22
2022-10-01T04:44:47.594Z,11.22
2022-10-01T04:45:47.566Z,11.21
2022-10-01T04:46:47.619Z,11.18
2022-10-01T04:47:47.525Z,11.21
2022-10-01T04:48:47.540Z,11.19
2022-10-01T04:49:47.879Z,11.19
2022-10-01T04:50:47.497Z,11.21
2022-10-01T04:51:47.788Z,11.19
2022-10-01T04:52:47.748Z,11.19
2022-10-01T04:53:47.459Z,11.17
2022-10-01T04:54:47.479Z,11.19
2022-10-01T04:55:47.433Z,11.21
2022-10-01T04:56:47.502Z,11.22
2022-10-01T04:57:47.408Z,11.22
2022-10-01T04:58:47.687Z,11.21
2022-10-01T04:59:47.418Z,11.19
2022-10-01T05:00:47.459Z,11.19
2022-10-01T05:01:47.704Z,11.17
2022-10-01T05:02:47.398Z,11.15
2022-10-01T05:03:47.380Z,11.17
2022-10-01T05:04:47.332Z,11.15
2022-10-01T05:05:47.600Z,11.14
2022-10-01T05:06:47.436Z,11.11
2022-10-01T05:07:47.297Z,11.09
2022-10-01T05:08:47.559Z,11.07
2022-10-01T05:09:47.566Z,11.06
2022-10-01T05:10:47.263Z,11.06
2022-10-01T05:11:47.260Z,11.07
2022-10-01T05:12:47.261Z,11.09
2022-10-01T05:13:47.240Z,11.07
2022-10-01T05:14:47.248Z,11.07
2022-10-01T05:15:47.231Z,11.06
2022-10-01T05:16:47.235Z,11.06
2022-10-01T05:17:47.190Z,11.06
2022-10-01T05:18:47.194Z,11.07
2022-10-01T05:19:47.479Z,11.10
2022-10-01T05:20:47.443Z,11.09
2022-10-01T05:21:47.141Z,11.10
2022-10-01T05:22:47.150Z,11.10
2022-10-01T05:23:47.123Z,11.10
2022-10-01T05:24:47.112Z,11.09
2022-10-01T05:25:47.433Z,11.14
2022-10-01T05:26:47.351Z,11.17
2022-10-01T05:27:47.124Z,11.18
2022-10-01T05:28:47.062Z,11.19
2022-10-01T05:29:48.162Z,11.19
2022-10-01T05:30:47.074Z,11.24
2022-10-01T05:31:47.095Z,11.24
2022-10-01T05:32:47.312Z,11.24
2022-10-01T05:33:47.029Z,11.22
2022-10-01T05:34:49.966Z,11.21
2022-10-01T05:35:47.992Z,11.24
2022-10-01T05:36:46.983Z,11.22
2022-10-01T05:37:46.977Z,11.25
2022-10-01T05:38:46.933Z,11.27
2022-10-01T05:39:46.963Z,11.28
2022-10-01T05:40:47.285Z,11.32
2022-10-01T05:41:46.932Z,11.33
2022-10-01T05:42:47.304Z,11.32
2022-10-01T05:43:46.925Z,11.28
2022-10-01T05:44:46.886Z,11.27
2022-10-01T05:45:46.958Z,11.28
2022-10-01T05:46:46.869Z,11.32
2022-10-01T05:47:46.850Z,11.35
2022-10-01T05:48:46.834Z,11.39
2022-10-01T05:49:47.105Z,11.39
2022-10-01T05:50:47.069Z,11.40
2022-10-01T05:51:46.813Z,11.40
2022-10-01T05:52:46.785Z,11.40
2022-10-01T05:53:50.187Z,11.43
2022-10-01T05:54:46.753Z,11.44
2022-10-01T05:55:46.745Z,11.47
2022-10-01T05:56:47.035Z,11.43
2022-10-01T05:57:46.726Z,11.43
2022-10-01T05:58:46.713Z,11.44
2022-10-01T05:59:46.710Z,11.52
2022-10-01T06:00:46.995Z,11.58
2022-10-01T06:01:46.747Z,11.61
2022-10-01T06:02:46.709Z,11.62
2022-10-01T06:03:46.676Z,11.62
2022-10-01T06:04:46.656Z,11.61
2022-10-01T06:05:46.648Z,11.61
2022-10-01T06:06:46.637Z,11.60
2022-10-01T06:07:46.617Z,11.58
2022-10-01T06:08:46.598Z,11.60
2022-10-01T06:09:46.577Z,11.62
2022-10-01T06:10:46.618Z,11.65
2022-10-01T06:11:46.866Z,11.69
2022-10-01T06:12:46.558Z,11.67
2022-10-01T06:13:46.819Z,11.67
2022-10-01T06:14:46.548Z,11.73
2022-10-01T06:15:46.529Z,11.75
2022-10-01T06:16:46.579Z,11.78
2022-10-01T06:17:46.518Z,11.82
2022-10-01T06:18:46.489Z,11.85
2022-10-01T06:19:46.469Z,11.83
2022-10-01T06:20:46.495Z,11.82
2022-10-01T06:21:46.748Z,11.83
2022-10-01T06:22:46.449Z,11.80
2022-10-01T06:23:46.708Z,11.82
2022-10-01T06:24:46.722Z,11.83
2022-10-01T06:25:46.405Z,11.88
2022-10-01T06:26:46.419Z,11.85
2022-10-01T06:27:46.424Z,11.85
2022-10-01T06:28:46.379Z,11.85
2022-10-01T06:29:46.360Z,11.83
2022-10-01T06:30:46.369Z,11.83
2022-10-01T06:31:46.365Z,11.86
2022-10-01T06:32:46.345Z,11.90
2022-10-01T06:33:46.320Z,11.88
2022-10-01T06:34:46.320Z,11.88
2022-10-01T06:35:46.308Z,11.83
2022-10-01T06:36:46.280Z,11.85
2022-10-01T06:37:46.341Z,11.86
2022-10-01T06:38:46.285Z,11.90
2022-10-01T06:39:46.254Z,11.94
2022-10-01T06:40:46.516Z,11.95
2022-10-01T06:41:46.551Z,11.98
2022-10-01T06:42:46.213Z,11.98
2022-10-01T06:43:46.211Z,11.99
2022-10-01T06:44:46.222Z,12.01
2022-10-01T06:45:46.239Z,12.02
2022-10-01T06:46:46.189Z,12.04
2022-10-01T06:47:46.191Z,12.05
2022-10-01T06:48:46.152Z,12.07
2022-10-01T06:49:47.852Z,12.07
2022-10-01T06:50:46.161Z,12.07
2022-10-01T06:51:46.130Z,12.10
2022-10-01T06:52:46.107Z,12.14
2022-10-01T06:53:46.092Z,12.14
2022-10-01T06:54:46.105Z,12.16
2022-10-01T06:55:46.084Z,12.16
2022-10-01T06:56:46.063Z,12.14
2022-10-01T06:57:46.343Z,12.16
2022-10-01T06:58:46.051Z,12.16
2022-10-01T06:59:46.031Z,12.13
2022-10-01T07:00:46.114Z,12.12
2022-10-01T07:01:46.473Z,12.10
2022-10-01T07:02:46.036Z,12.07
2022-10-01T07:03:45.983Z,12.07
2022-10-01T07:04:45.987Z,12.05
2022-10-01T07:05:45.984Z,12.04
2022-10-01T07:06:45.947Z,12.01
2022-10-01T07:07:46.211Z,12.01
2022-10-01T07:08:45.954Z,12.01
2022-10-01T07:09:45.944Z,11.99
2022-10-01T07:10:46.755Z,11.99
2022-10-01T07:11:45.929Z,12.04
2022-10-01T07:12:45.889Z,12.09
2022-10-01T07:13:45.866Z,12.13
2022-10-01T07:14:45.873Z,12.19
2022-10-01T07:15:46.136Z,12.21
2022-10-01T07:16:45.925Z,12.23
2022-10-01T07:17:45.825Z,12.27
2022-10-01T07:18:45.833Z,12.27
2022-10-01T07:19:45.797Z,12.28
2022-10-01T07:20:45.801Z,12.29
2022-10-01T07:21:45.802Z,12.35
2022-10-01T07:22:45.779Z,12.35
2022-10-01T07:23:45.749Z,12.39
2022-10-01T07:24:45.759Z,12.45
2022-10-01T07:25:46.039Z,12.47
2022-10-01T07:26:45.720Z,12.47
2022-10-01T07:27:45.720Z,12.53
2022-10-01T07:28:45.708Z,12.56
2022-10-01T07:29:45.680Z,12.59
2022-10-01T07:30:49.589Z,12.60
2022-10-01T07:31:45.732Z,12.70
2022-10-01T07:32:45.667Z,12.74
2022-10-01T07:33:45.656Z,12.75
2022-10-01T07:34:45.619Z,12.82
2022-10-01T07:35:45.650Z,12.90
2022-10-01T07:36:45.640Z,12.92
2022-10-01T07:37:45.598Z,13.01
2022-10-01T07:38:45.857Z,13.08
2022-10-01T07:39:45.580Z,13.17
2022-10-01T07:40:45.559Z,13.14
2022-10-01T07:41:46.343Z,13.20
2022-10-01T07:42:45.551Z,13.25
2022-10-01T07:43:45.533Z,13.25
2022-10-01T07:44:45.507Z,13.25
2022-10-01T07:45:45.571Z,13.28
2022-10-01T07:46:45.510Z,13.29
2022-10-01T07:47:45.470Z,13.36
2022-10-01T07:48:45.731Z,13.41
2022-10-01T07:49:45.732Z,13.45
2022-10-01T07:50:45.442Z,13.44
2022-10-01T07:51:45.440Z,13.44
2022-10-01T07:52:45.432Z,13.46
2022-10-01T07:53:45.411Z,13.45
2022-10-01T07:54:45.385Z,13.44
2022-10-01T07:55:45.402Z,13.45
2022-10-01T07:56:45.393Z,13.46
2022-10-01T07:57:45.362Z,13.48
2022-10-01T07:58:45.363Z,13.51
2022-10-01T07:59:45.347Z,13.54
2022-10-01T08:00:45.334Z,13.48
2022-10-01T08:01:45.360Z,13.45
2022-10-01T08:02:45.355Z,13.45
2022-10-01T08:03:45.304Z,13.48
2022-10-01T08:04:45.273Z,13.45
2022-10-01T08:05:45.276Z,13.46
2022-10-01T08:06:45.316Z,13.45
2022-10-01T08:07:45.247Z,13.46
2022-10-01T08:08:45.240Z,13.45
2022-10-01T08:09:45.273Z,13.48
2022-10-01T08:10:45.213Z,13.45
2022-10-01T08:11:45.220Z,13.48
2022-10-01T08:12:45.221Z,13.52
2022-10-01T08:13:45.174Z,13.55
2022-10-01T08:14:45.155Z,13.54
2022-10-01T08:15:45.135Z,13.55
2022-10-01T08:16:45.257Z,13.52
2022-10-01T08:17:45.136Z,13.52
2022-10-01T08:18:45.127Z,13.52
2022-10-01T08:19:45.388Z,13.54
2022-10-01T08:20:45.365Z,13.57
2022-10-01T08:21:45.106Z,13.63
2022-10-01T08:22:45.087Z,13.70
2022-10-01T08:23:45.066Z,13.75
2022-10-01T08:24:45.042Z,13.79
2022-10-01T08:25:45.040Z,13.79
2022-10-01T08:26:45.099Z,13.78
2022-10-01T08:27:45.007Z,13.75
2022-10-01T08:28:44.998Z,13.79
2022-10-01T08:29:44.987Z,13.81
2022-10-01T08:30:44.988Z,13.87
2022-10-01T08:31:45.022Z,13.87
2022-10-01T08:32:44.950Z,13.92
2022-10-01T08:33:44.948Z,13.91
2022-10-01T08:34:44.918Z,13.95
2022-10-01T08:35:44.920Z,13.97
2022-10-01T08:36:44.954Z,13.91
2022-10-01T08:37:45.169Z,13.99
2022-10-01T08:38:45.971Z,14.09
2022-10-01T08:39:44.860Z,14.20
2022-10-01T08:40:44.870Z,14.25
2022-10-01T08:41:45.333Z,14.21
2022-10-01T08:42:44.830Z,14.24
2022-10-01T08:43:44.840Z,14.27
2022-10-01T08:44:44.812Z,14.28
2022-10-01T08:45:44.884Z,14.27
2022-10-01T08:46:44.846Z,14.25
2022-10-01T08:47:44.777Z,14.25
2022-10-01T08:48:44.761Z,14.32
2022-10-01T08:49:44.750Z,14.42
2022-10-01T08:50:44.758Z,14.47
2022-10-01T08:51:44.722Z,14.51
2022-10-01T08:52:44.702Z,14.51
2022-10-01T08:53:44.711Z,14.46
2022-10-01T08:54:44.700Z,14.46
2022-10-01T08:55:44.699Z,14.50
2022-10-01T08:56:44.717Z,14.55
2022-10-01T08:57:44.680Z,14.62
2022-10-01T08:58:44.641Z,14.68
2022-10-01T08:59:44.622Z,14.70
2022-10-01T09:00:44.710Z,14.78
2022-10-01T09:01:44.662Z,14.80
2022-10-01T09:02:44.584Z,14.86
2022-10-01T09:03:44.584Z,14.91
2022-10-01T09:04:44.609Z,14.84
2022-10-01T09:05:44.563Z,14.86
2022-10-01T09:06:44.590Z,14.80
2022-10-01T09:07:44.545Z,14.73
2022-10-01T09:08:44.525Z,14.64
2022-10-01T09:09:44.515Z,14.58
2022-10-01T09:10:44.514Z,14.58
2022-10-01T09:11:44.484Z,14.55
2022-10-01T09:12:44.480Z,14.54
2022-10-01T09:13:49.346Z,14.54
2022-10-01T09:14:45.494Z,14.57
2022-10-01T09:15:44.445Z,14.57
2022-10-01T09:16:44.540Z,14.61
2022-10-01T09:17:44.426Z,14.68
2022-10-01T09:18:44.722Z,14.68
2022-10-01T09:19:47.780Z,14.73
2022-10-01T09:20:44.386Z,14.72
2022-10-01T09:21:44.387Z,14.77
2022-10-01T09:22:44.382Z,14.80
2022-10-01T09:23:44.345Z,14.77
2022-10-01T09:24:44.360Z,14.80
2022-10-01T09:25:45.417Z,14.86
2022-10-01T09:26:44.327Z,14.84
2022-10-01T09:27:44.371Z,14.80
2022-10-01T09:28:44.307Z,14.78
2022-10-01T09:29:44.289Z,14.83
2022-10-01T09:30:44.298Z,14.78
2022-10-01T09:31:44.307Z,14.77
2022-10-01T09:32:44.249Z,14.72
2022-10-01T09:33:44.248Z,14.68
2022-10-01T09:34:44.243Z,14.61
2022-10-01T09:35:44.507Z,14.58
2022-10-01T09:36:44.199Z,14.57
2022-10-01T09:37:44.202Z,14.55
2022-10-01T09:38:44.191Z,14.54
2022-10-01T09:39:44.169Z,14.57
2022-10-01T09:40:44.163Z,14.60
2022-10-01T09:41:44.429Z,14.61
2022-10-01T09:42:44.152Z,14.65
2022-10-01T09:43:44.123Z,14.72
2022-10-01T09:44:44.159Z,14.77
2022-10-01T09:45:44.444Z,14.80
2022-10-01T09:46:44.081Z,14.78
2022-10-01T09:47:44.081Z,14.77
2022-10-01T09:48:44.090Z,14.73
2022-10-01T09:49:44.099Z,14.80
2022-10-01T09:50:44.034Z,14.83
2022-10-01T09:51:45.467Z,14.75
2022-10-01T09:52:44.962Z,14.73
2022-10-01T09:53:44.020Z,14.61
2022-10-01T09:54:44.012Z,14.60
2022-10-01T09:55:44.017Z,14.57
2022-10-01T09:56:43.980Z,14.57
2022-10-01T09:57:43.988Z,14.64
2022-10-01T09:58:43.984Z,14.73
2022-10-01T09:59:43.954Z,14.91
2022-10-01T10:00:43.951Z,15.02
2022-10-01T10:01:44.022Z,15.07
2022-10-01T10:02:48.958Z,15.14
2022-10-01T10:03:46.693Z,15.16
2022-10-01T10:04:43.885Z,15.13
2022-10-01T10:05:44.165Z,15.09
2022-10-01T10:06:44.144Z,15.07
2022-10-01T10:07:44.605Z,15.10
2022-10-01T10:08:44.118Z,15.10
2022-10-01T10:09:43.862Z,15.14
2022-10-01T10:10:44.826Z,15.19
2022-10-01T10:11:44.735Z,15.25
2022-10-01T10:12:43.936Z,15.28
2022-10-01T10:13:44.543Z,15.28
2022-10-01T10:14:43.768Z,15.32
2022-10-01T10:15:43.795Z,15.32
2022-10-01T10:16:44.758Z,15.41
2022-10-01T10:17:43.736Z,15.51
2022-10-01T10:18:43.748Z,15.62
2022-10-01T10:19:44.051Z,15.71
2022-10-01T10:20:43.704Z,15.83
2022-10-01T10:21:43.707Z,15.86
2022-10-01T10:22:43.687Z,15.93
2022-10-01T10:23:43.668Z,16.09
2022-10-01T10:24:43.677Z,16.30
2022-10-01T10:25:43.703Z,16.39
2022-10-01T10:26:43.646Z,16.52
2022-10-01T10:27:43.650Z,16.61
2022-10-01T10:28:44.350Z,16.71
2022-10-01T10:29:43.609Z,16.73
2022-10-01T10:30:43.608Z,16.71
2022-10-01T10:31:43.661Z,16.76
2022-10-01T10:32:43.867Z,16.83
2022-10-01T10:33:43.563Z,16.78
2022-10-01T10:34:43.547Z,16.82
2022-10-01T10:35:43.846Z,16.91
2022-10-01T10:36:43.531Z,17.03
2022-10-01T10:37:43.535Z,17.19
2022-10-01T10:38:43.502Z,17.26
2022-10-01T10:39:43.525Z,17.37
2022-10-01T10:40:43.519Z,17.38
2022-10-01T10:41:43.452Z,17.51
2022-10-01T10:42:44.322Z,17.62
2022-10-01T10:43:43.423Z,17.66
2022-10-01T10:44:43.435Z,17.46
2022-10-01T10:45:43.429Z,17.38
2022-10-01T10:46:46.157Z,17.34
2022-10-01T10:47:43.397Z,17.22
2022-10-01T10:48:43.416Z,17.15
2022-10-01T10:49:43.420Z,17.08
2022-10-01T10:50:43.356Z,16.97
2022-10-01T10:51:43.328Z,16.93
2022-10-01T10:52:45.693Z,17.04
2022-10-01T10:53:43.334Z,17.19
2022-10-01T10:54:44.048Z,17.31
2022-10-01T10:55:43.307Z,17.46
2022-10-01T10:56:43.287Z,17.58
2022-10-01T10:57:43.305Z,17.56
2022-10-01T10:58:43.254Z,17.66
2022-10-01T10:59:43.527Z,17.64
2022-10-01T11:00:44.126Z,17.51
2022-10-01T11:01:43.419Z,17.58
2022-10-01T11:02:44.489Z,17.64
2022-10-01T11:03:43.937Z,17.59
2022-10-01T11:04:44.004Z,17.49
2022-10-01T11:05:43.935Z,17.44
2022-10-01T11:06:43.747Z,17.56
2022-10-01T11:07:43.249Z,17.66
2022-10-01T11:08:43.536Z,17.63
2022-10-01T11:09:44.269Z,17.64
2022-10-01T11:10:44.185Z,17.49
2022-10-01T11:11:44.090Z,17.52
2022-10-01T11:12:43.167Z,17.51
2022-10-01T11:13:43.648Z,17.54
2022-10-01T11:14:43.059Z,17.56
2022-10-01T11:15:43.419Z,17.64
2022-10-01T11:16:43.051Z,17.66
2022-10-01T11:17:43.041Z,17.70
2022-10-01T11:18:43.010Z,17.72
2022-10-01T11:19:43.032Z,17.72
2022-10-01T11:20:42.979Z,17.79
2022-10-01T11:21:42.981Z,17.86
2022-10-01T11:22:43.030Z,17.93
2022-10-01T11:23:42.959Z,17.95
2022-10-01T11:24:42.951Z,17.96
2022-10-01T11:25:43.234Z,18.02
2022-10-01T11:26:42.941Z,17.95
2022-10-01T11:27:42.919Z,17.82
2022-10-01T11:28:42.891Z,17.86
2022-10-01T11:29:42.902Z,17.93
2022-10-01T11:30:42.870Z,18.03
2022-10-01T11:31:42.913Z,18.14
2022-10-01T11:32:42.875Z,18.21
2022-10-01T11:33:42.862Z,18.26
2022-10-01T11:34:42.854Z,18.33
2022-10-01T11:35:42.822Z,18.39
2022-10-01T11:36:42.821Z,18.47
2022-10-01T11:37:42.798Z,18.35
2022-10-01T11:38:42.779Z,18.26
2022-10-01T11:39:43.044Z,18.33
2022-10-01T11:40:42.786Z,18.39
2022-10-01T11:41:42.734Z,18.35
2022-10-01T11:42:43.039Z,18.30
2022-10-01T11:43:42.733Z,18.29
2022-10-01T11:44:42.716Z,18.26
2022-10-01T11:45:42.704Z,18.29
2022-10-01T11:46:43.017Z,18.23
2022-10-01T11:47:42.733Z,18.23
2022-10-01T11:48:42.656Z,18.27
2022-10-01T11:49:42.682Z,18.23
2022-10-01T11:50:42.660Z,18.11
2022-10-01T11:51:42.626Z,18.02
2022-10-01T11:52:42.626Z,17.96
2022-10-01T11:53:42.628Z,17.89
2022-10-01T11:54:42.597Z,17.86
2022-10-01T11:55:42.596Z,17.79
2022-10-01T11:56:42.591Z,17.86
2022-10-01T11:57:42.578Z,17.95
2022-10-01T11:58:42.560Z,18.02
2022-10-01T11:59:43.259Z,18.08
2022-10-01T12:00:42.542Z,18.11
2022-10-01T12:01:42.557Z,18.25
2022-10-01T12:02:42.500Z,18.20
2022-10-01T12:03:42.511Z,18.20
2022-10-01T12:04:42.502Z,18.18
2022-10-01T12:05:42.521Z,18.26
2022-10-01T12:06:43.427Z,18.35
2022-10-01T12:07:42.460Z,18.42
2022-10-01T12:08:42.670Z,18.48
2022-10-01T12:09:42.432Z,18.51
2022-10-01T12:10:42.430Z,18.57
2022-10-01T12:11:42.409Z,18.65
2022-10-01T12:12:42.392Z,18.80
2022-10-01T12:13:42.404Z,18.91
2022-10-01T12:14:42.393Z,18.90
2022-10-01T12:15:42.377Z,18.90
2022-10-01T12:16:42.497Z,18.82
2022-10-01T12:17:42.366Z,18.73
2022-10-01T12:18:42.321Z,18.58
2022-10-01T12:19:42.322Z,18.48
2022-10-01T12:20:42.562Z,18.39
2022-10-01T12:21:42.554Z,18.37
2022-10-01T12:22:42.275Z,18.48
2022-10-01T12:23:42.285Z,18.44
2022-10-01T12:24:42.348Z,18.52
2022-10-01T12:25:42.257Z,18.67
2022-10-01T12:26:42.226Z,18.69
2022-10-01T12:27:42.250Z,18.72
2022-10-01T12:28:42.247Z,18.76
2022-10-01T12:29:42.207Z,18.92
2022-10-01T12:30:42.198Z,18.99
2022-10-01T12:31:42.280Z,19.00
2022-10-01T12:32:42.193Z,19.10
2022-10-01T12:33:42.148Z,19.16
2022-10-01T12:34:42.436Z,19.06
2022-10-01T12:35:42.125Z,18.99
2022-10-01T12:36:42.117Z,19.04
2022-10-01T12:37:42.120Z,19.04
2022-10-01T12:38:42.117Z,19.11
2022-10-01T12:39:42.099Z,19.13
2022-10-01T12:40:42.104Z,19.14
2022-10-01T12:41:42.072Z,18.98
2022-10-01T12:42:42.059Z,18.94
2022-10-01T12:43:42.029Z,18.84
2022-10-01T12:44:42.446Z,18.81
2022-10-01T12:45:43.038Z,18.82
2022-10-01T12:46:42.176Z,18.90
2022-10-01T12:47:43.068Z,18.95
2022-10-01T12:48:42.001Z,19.02
2022-10-01T12:49:41.995Z,19.16
2022-10-01T12:50:41.961Z,19.25
2022-10-01T12:51:41.978Z,19.41
2022-10-01T12:52:41.939Z,19.61